Miami, FL

8:04 AM EDT on August 28, 2016 (GMT -0400)
Kendall-Tamiami Executive | Change Station
CLOSE
Current Station
Airport
Location: Kendall,
Elevation: 10 ft
Nearby Weather Stations

Elev 10 ft 25.64 °N, 80.43 °W | Updated 11 minutes ago

Scattered Clouds
Scattered Clouds
81 °F
Feels Like 89 °F
N
14
Wind Variable Wind from ESE

Today
High -- | Low -- °F
--% Chance of Precip.
Yesterday
High -- | Low -- °F
Precip. -- in
7:00 AM 7:44 PM
Waning Crescent, 16% visible
Pressure 29.90 in
Visibility 10.0 miles
Clouds Few 2200 ft
Few 4100 ft
Scattered Clouds 5500 ft
Heat Index 89 °F
Dew Point 78 °F
Humidity 91%
Rainfall 0.00 in
Snow Depth Not available.
UV 1 out of 12
Pollen 1.30 out of 12
Ozone Good
PM2.5 Good
Flu Activity Not available.
METAR KTMB 281153Z AUTO 11012KT 10SM FEW022 FEW041 SCT055 27/26 A2990 RMK AO2 RAB36E47 SLP124 P0000 60000 T02720256 10278 20256 52014

More Conditions Fewer Conditions

Pressure 29.90 in
Visibility 10.0 miles
Clouds Few 2200 ft
Few 4100 ft
Scattered Clouds 5500 ft
Heat Index 89 °F
Dew Point 78 °F
Humidity 91%
Rainfall 0.00 in
Snow Depth Not available.
UV 1 out of 12
Pollen 1.30 out of 12
Ozone Good
PM2.5 Good
Flu Activity Not available.
METAR KTMB 281153Z AUTO 11012KT 10SM FEW022 FEW041 SCT055 27/26 A2990 RMK AO2 RAB36E47 SLP124 P0000 60000 T02720256 10278 20256 52014

More Conditions Fewer Conditions

Nowcast | as of 7:50 am EDT on August 28, 2016

Scattered showers and isolated thunderstorms will continue to affect the Atlantic waters as well as the eastern half of South Florida through the mid morning hours. Locally heavy downpours, gusty winds, and occasional lightning will be possible with the strongest storms.

×

10-Day Weather Forecast

Almanac

Astronomy

Aug. 28, 2016 Rise Set
Actual Time 7:00 AM EDT 7:44 PM EDT
Civil Twilight 6:37 AM EDT 8:07 PM EDT
Nautical Twilight 6:09 AM EDT 8:35 PM EDT
Astronomical Twilight 5:41 AM EDT 9:03 PM EDT
Moon 3:25 AM EDT 5:05 PM EDT
Length of Visible Light 13h 30m
Length of Day
12h 43m
Tomorrow will be 1m 24s shorter.
Waning Crescent, 16% of the Moon is Illuminated
Today
Waning Crescent
Sep 1
New
Sep 9
First Quarter
Sep 16
Full
Sep 23
Last Quarter

Yesterday's Extremes

State Highs State Lows

Community

WunderPhotos

Upload Photos

1,935,552 photos uploaded!

Nearby

Air Quality

  Air Quality AQ Index Pollutant
Yesterday Good
PM2.5
Yesterday Good
OZONE
Current Good
OZONE
Current Good
PM2.5
Sunday Good
OZONE
Sunday Good
PM2.5
Monday Good
OZONE
Monday Good
PM2.5
Tuesday Good
OZONE
Tuesday Good
PM2.5

Snow Depth

Station Depth Elevation
No new snow has been reported.

Earthquake Activity

City Distance Mag. Time & Date
No recent earthquake activity has been reported nearby.
Minimum magnitude displayed is 2.5.

Coastal Water Temperatures

Place Temperature
Virginia Key, FL 87.1 °F

Nearby Weather Stations